sensor_id;sensor_type;location;lat;lon;timestamp;P1;durP1;ratioP1;P2;durP2;ratioP2
56670;SDS011;42545;50.054;8.306;2023-09-08T00:01:16;1.30;;;1.20;;
56670;SDS011;42545;50.054;8.306;2023-09-08T00:03:43;1.63;;;1.20;;
56670;SDS011;42545;50.054;8.306;2023-09-08T00:06:09;1.13;;;1.02;;
56670;SDS011;42545;50.054;8.306;2023-09-08T00:08:36;1.30;;;1.20;;
56670;SDS011;42545;50.054;8.306;2023-09-08T00:11:03;1.25;;;1.02;;
56670;SDS011;42545;50.054;8.306;2023-09-08T00:13:33;1.27;;;1.00;;
56670;SDS011;42545;50.054;8.306;2023-09-08T00:16:00;1.20;;;1.10;;
56670;SDS011;42545;50.054;8.306;2023-09-08T00:18:27;1.25;;;1.10;;
56670;SDS011;42545;50.054;8.306;2023-09-08T00:20:54;1.30;;;1.17;;
56670;SDS011;42545;50.054;8.306;2023-09-08T00:23:21;1.17;;;1.08;;
56670;SDS011;42545;50.054;8.306;2023-09-08T00:25:48;1.25;;;1.15;;
56670;SDS011;42545;50.054;8.306;2023-09-08T00:28:15;1.40;;;1.20;;
56670;SDS011;42545;50.054;8.306;2023-09-08T00:30:43;1.42;;;1.33;;
56670;SDS011;42545;50.054;8.306;2023-09-08T00:33:10;1.27;;;1.17;;
56670;SDS011;42545;50.054;8.306;2023-09-08T00:35:38;1.20;;;1.10;;
56670;SDS011;42545;50.054;8.306;2023-09-08T00:38:05;1.13;;;1.02;;
56670;SDS011;42545;50.054;8.306;2023-09-08T00:40:32;1.27;;;1.17;;
56670;SDS011;42545;50.054;8.306;2023-09-08T00:42:58;1.20;;;1.10;;
56670;SDS011;42545;50.054;8.306;2023-09-08T00:45:26;1.30;;;1.20;;
56670;SDS011;42545;50.054;8.306;2023-09-08T00:47:57;1.27;;;1.17;;
56670;SDS011;42545;50.054;8.306;2023-09-08T00:50:24;1.20;;;1.10;;
56670;SDS011;42545;50.054;8.306;2023-09-08T00:52:51;1.10;;;1.00;;
56670;SDS011;42545;50.054;8.306;2023-09-08T00:55:18;1.15;;;0.85;;
56670;SDS011;42545;50.054;8.306;2023-09-08T00:57:45;1.10;;;1.00;;
56670;SDS011;42545;50.054;8.306;2023-09-08T01:00:12;1.00;;;0.90;;
56670;SDS011;42545;50.054;8.306;2023-09-08T01:02:40;1.15;;;1.05;;
56670;SDS011;42545;50.054;8.306;2023-09-08T01:07:39;1.35;;;1.00;;
56670;SDS011;42545;50.054;8.306;2023-09-08T01:10:07;1.00;;;0.90;;
56670;SDS011;42545;50.054;8.306;2023-09-08T01:12:35;0.93;;;0.90;;
56670;SDS011;42545;50.054;8.306;2023-09-08T01:15:02;0.80;;;0.80;;
56670;SDS011;42545;50.054;8.306;2023-09-08T01:17:29;0.77;;;0.77;;
56670;SDS011;42545;50.054;8.306;2023-09-08T01:19:56;1.15;;;0.90;;
56670;SDS011;42545;50.054;8.306;2023-09-08T01:22:34;1.00;;;0.88;;
56670;SDS011;42545;50.054;8.306;2023-09-08T01:25:25;0.70;;;0.70;;
56670;SDS011;42545;50.054;8.306;2023-09-08T01:27:55;1.15;;;1.00;;
56670;SDS011;42545;50.054;8.306;2023-09-08T01:30:26;1.50;;;1.40;;
56670;SDS011;42545;50.054;8.306;2023-09-08T01:32:57;1.77;;;1.33;;
56670;SDS011;42545;50.054;8.306;2023-09-08T01:35:25;2.00;;;1.60;;
56670;SDS011;42545;50.054;8.306;2023-09-08T01:37:52;1.60;;;1.40;;
56670;SDS011;42545;50.054;8.306;2023-09-08T01:40:21;1.85;;;1.40;;
56670;SDS011;42545;50.054;8.306;2023-09-08T01:42:49;1.70;;;1.50;;
56670;SDS011;42545;50.054;8.306;2023-09-08T01:45:16;1.42;;;1.30;;
56670;SDS011;42545;50.054;8.306;2023-09-08T01:47:43;1.40;;;1.30;;
56670;SDS011;42545;50.054;8.306;2023-09-08T01:50:10;1.50;;;1.30;;
56670;SDS011;42545;50.054;8.306;2023-09-08T01:52:37;1.50;;;1.38;;
56670;SDS011;42545;50.054;8.306;2023-09-08T01:55:03;1.58;;;1.30;;
56670;SDS011;42545;50.054;8.306;2023-09-08T01:57:32;1.60;;;1.50;;
56670;SDS011;42545;50.054;8.306;2023-09-08T02:00:01;1.70;;;1.52;;
56670;SDS011;42545;50.054;8.306;2023-09-08T02:02:27;1.88;;;1.58;;
56670;SDS011;42545;50.054;8.306;2023-09-08T02:04:54;2.25;;;1.50;;
56670;SDS011;42545;50.054;8.306;2023-09-08T02:07:21;1.45;;;1.35;;
56670;SDS011;42545;50.054;8.306;2023-09-08T02:09:48;1.50;;;1.23;;
56670;SDS011;42545;50.054;8.306;2023-09-08T02:12:14;1.30;;;1.20;;
56670;SDS011;42545;50.054;8.306;2023-09-08T02:14:42;1.60;;;1.38;;
56670;SDS011;42545;50.054;8.306;2023-09-08T02:17:10;1.58;;;1.30;;
56670;SDS011;42545;50.054;8.306;2023-09-08T02:19:37;1.40;;;1.23;;
56670;SDS011;42545;50.054;8.306;2023-09-08T02:22:03;2.00;;;1.42;;
56670;SDS011;42545;50.054;8.306;2023-09-08T02:24:30;1.38;;;1.27;;
56670;SDS011;42545;50.054;8.306;2023-09-08T02:26:57;1.40;;;1.30;;
56670;SDS011;42545;50.054;8.306;2023-09-08T02:29:24;1.50;;;1.38;;
56670;SDS011;42545;50.054;8.306;2023-09-08T02:31:52;1.10;;;1.00;;
56670;SDS011;42545;50.054;8.306;2023-09-08T02:34:20;1.40;;;1.20;;
56670;SDS011;42545;50.054;8.306;2023-09-08T02:36:47;1.50;;;1.40;;
56670;SDS011;42545;50.054;8.306;2023-09-08T02:39:16;1.40;;;1.30;;
56670;SDS011;42545;50.054;8.306;2023-09-08T02:41:43;1.42;;;1.30;;
56670;SDS011;42545;50.054;8.306;2023-09-08T02:44:09;1.60;;;1.10;;
56670;SDS011;42545;50.054;8.306;2023-09-08T02:46:39;1.20;;;1.10;;
56670;SDS011;42545;50.054;8.306;2023-09-08T02:49:05;1.20;;;1.10;;
56670;SDS011;42545;50.054;8.306;2023-09-08T02:51:35;1.30;;;1.20;;
56670;SDS011;42545;50.054;8.306;2023-09-08T02:54:01;1.30;;;1.20;;
56670;SDS011;42545;50.054;8.306;2023-09-08T02:56:31;1.40;;;1.30;;
56670;SDS011;42545;50.054;8.306;2023-09-08T02:58:58;1.20;;;1.10;;
56670;SDS011;42545;50.054;8.306;2023-09-08T03:01:24;1.30;;;1.20;;
56670;SDS011;42545;50.054;8.306;2023-09-08T03:03:51;1.80;;;1.52;;
56670;SDS011;42545;50.054;8.306;2023-09-08T03:06:19;1.45;;;1.35;;
56670;SDS011;42545;50.054;8.306;2023-09-08T03:08:50;1.58;;;1.48;;
56670;SDS011;42545;50.054;8.306;2023-09-08T03:11:17;1.75;;;1.50;;
56670;SDS011;42545;50.054;8.306;2023-09-08T03:13:44;2.25;;;1.50;;
56670;SDS011;42545;50.054;8.306;2023-09-08T03:16:11;1.63;;;1.52;;
56670;SDS011;42545;50.054;8.306;2023-09-08T03:18:38;1.52;;;1.25;;
56670;SDS011;42545;50.054;8.306;2023-09-08T03:21:06;1.38;;;1.23;;
56670;SDS011;42545;50.054;8.306;2023-09-08T03:23:36;1.55;;;1.40;;
56670;SDS011;42545;50.054;8.306;2023-09-08T03:26:06;1.33;;;1.23;;
56670;SDS011;42545;50.054;8.306;2023-09-08T03:28:33;1.35;;;1.20;;
56670;SDS011;42545;50.054;8.306;2023-09-08T03:31:01;1.60;;;1.30;;
56670;SDS011;42545;50.054;8.306;2023-09-08T03:33:28;1.48;;;1.25;;
56670;SDS011;42545;50.054;8.306;2023-09-08T03:35:55;1.38;;;1.05;;
56670;SDS011;42545;50.054;8.306;2023-09-08T03:38:22;2.13;;;1.58;;
56670;SDS011;42545;50.054;8.306;2023-09-08T03:40:49;1.60;;;1.50;;
56670;SDS011;42545;50.054;8.306;2023-09-08T03:43:18;1.92;;;1.38;;
56670;SDS011;42545;50.054;8.306;2023-09-08T03:45:46;1.30;;;1.20;;
56670;SDS011;42545;50.054;8.306;2023-09-08T03:48:13;1.40;;;1.30;;
56670;SDS011;42545;50.054;8.306;2023-09-08T03:50:40;1.55;;;1.30;;
56670;SDS011;42545;50.054;8.306;2023-09-08T03:53:10;1.45;;;1.23;;
56670;SDS011;42545;50.054;8.306;2023-09-08T03:55:38;1.45;;;1.30;;
56670;SDS011;42545;50.054;8.306;2023-09-08T03:58:04;1.50;;;1.15;;
56670;SDS011;42545;50.054;8.306;2023-09-08T04:00:33;1.60;;;1.40;;
56670;SDS011;42545;50.054;8.306;2023-09-08T04:03:00;1.35;;;1.25;;
56670;SDS011;42545;50.054;8.306;2023-09-08T04:05:27;1.10;;;1.00;;
56670;SDS011;42545;50.054;8.306;2023-09-08T04:07:54;1.00;;;0.90;;
56670;SDS011;42545;50.054;8.306;2023-09-08T04:10:20;1.17;;;1.08;;
56670;SDS011;42545;50.054;8.306;2023-09-08T04:12:47;1.10;;;1.00;;
56670;SDS011;42545;50.054;8.306;2023-09-08T04:15:14;1.30;;;1.20;;
56670;SDS011;42545;50.054;8.306;2023-09-08T04:17:42;1.10;;;1.00;;
56670;SDS011;42545;50.054;8.306;2023-09-08T04:20:08;1.10;;;1.00;;
56670;SDS011;42545;50.054;8.306;2023-09-08T04:22:36;0.70;;;0.70;;
56670;SDS011;42545;50.054;8.306;2023-09-08T04:25:04;1.30;;;1.20;;
56670;SDS011;42545;50.054;8.306;2023-09-08T04:27:32;1.10;;;1.00;;
56670;SDS011;42545;50.054;8.306;2023-09-08T04:30:01;1.25;;;1.15;;
56670;SDS011;42545;50.054;8.306;2023-09-08T04:32:29;1.40;;;1.15;;
56670;SDS011;42545;50.054;8.306;2023-09-08T04:34:58;1.20;;;1.10;;
56670;SDS011;42545;50.054;8.306;2023-09-08T04:37:26;1.13;;;1.00;;
56670;SDS011;42545;50.054;8.306;2023-09-08T04:39:52;1.02;;;0.93;;
56670;SDS011;42545;50.054;8.306;2023-09-08T04:42:19;1.17;;;1.00;;
56670;SDS011;42545;50.054;8.306;2023-09-08T04:44:46;1.02;;;1.00;;
56670;SDS011;42545;50.054;8.306;2023-09-08T04:47:17;1.02;;;0.93;;
56670;SDS011;42545;50.054;8.306;2023-09-08T04:49:44;1.15;;;1.05;;
56670;SDS011;42545;50.054;8.306;2023-09-08T04:52:12;1.20;;;1.10;;
56670;SDS011;42545;50.054;8.306;2023-09-08T04:54:39;1.08;;;1.00;;
56670;SDS011;42545;50.054;8.306;2023-09-08T04:57:06;0.88;;;0.85;;
56670;SDS011;42545;50.054;8.306;2023-09-08T04:59:33;1.13;;;1.02;;
56670;SDS011;42545;50.054;8.306;2023-09-08T05:02:01;1.00;;;0.90;;
56670;SDS011;42545;50.054;8.306;2023-09-08T05:04:28;1.15;;;1.05;;
56670;SDS011;42545;50.054;8.306;2023-09-08T05:06:57;0.98;;;0.88;;
56670;SDS011;42545;50.054;8.306;2023-09-08T05:09:25;0.80;;;0.70;;
56670;SDS011;42545;50.054;8.306;2023-09-08T05:11:52;0.75;;;0.75;;
56670;SDS011;42545;50.054;8.306;2023-09-08T05:14:19;1.00;;;0.90;;
56670;SDS011;42545;50.054;8.306;2023-09-08T05:16:46;1.00;;;0.90;;
56670;SDS011;42545;50.054;8.306;2023-09-08T05:19:20;1.13;;;1.00;;
56670;SDS011;42545;50.054;8.306;2023-09-08T05:21:49;1.25;;;1.15;;
56670;SDS011;42545;50.054;8.306;2023-09-08T05:24:16;1.13;;;1.00;;
56670;SDS011;42545;50.054;8.306;2023-09-08T05:26:47;0.85;;;0.85;;
56670;SDS011;42545;50.054;8.306;2023-09-08T05:29:14;0.70;;;0.70;;
56670;SDS011;42545;50.054;8.306;2023-09-08T05:31:41;0.80;;;0.80;;
56670;SDS011;42545;50.054;8.306;2023-09-08T05:34:08;0.82;;;0.82;;
56670;SDS011;42545;50.054;8.306;2023-09-08T05:36:35;0.88;;;0.85;;
56670;SDS011;42545;50.054;8.306;2023-09-08T05:39:03;1.05;;;0.95;;
56670;SDS011;42545;50.054;8.306;2023-09-08T05:41:30;0.80;;;0.80;;
56670;SDS011;42545;50.054;8.306;2023-09-08T05:44:00;0.80;;;0.80;;
56670;SDS011;42545;50.054;8.306;2023-09-08T05:46:27;0.70;;;0.70;;
56670;SDS011;42545;50.054;8.306;2023-09-08T05:48:54;0.70;;;0.70;;
56670;SDS011;42545;50.054;8.306;2023-09-08T05:51:20;0.88;;;0.85;;
56670;SDS011;42545;50.054;8.306;2023-09-08T05:53:47;0.70;;;0.70;;
56670;SDS011;42545;50.054;8.306;2023-09-08T05:56:17;0.85;;;0.85;;
56670;SDS011;42545;50.054;8.306;2023-09-08T05:58:44;0.80;;;0.80;;
56670;SDS011;42545;50.054;8.306;2023-09-08T06:01:14;0.95;;;0.85;;
56670;SDS011;42545;50.054;8.306;2023-09-08T06:03:41;1.30;;;1.20;;
56670;SDS011;42545;50.054;8.306;2023-09-08T06:06:08;2.33;;;1.60;;
56670;SDS011;42545;50.054;8.306;2023-09-08T06:08:34;1.80;;;1.55;;
56670;SDS011;42545;50.054;8.306;2023-09-08T06:11:01;1.80;;;1.65;;
56670;SDS011;42545;50.054;8.306;2023-09-08T06:13:28;2.88;;;1.95;;
56670;SDS011;42545;50.054;8.306;2023-09-08T06:15:55;2.40;;;2.15;;
56670;SDS011;42545;50.054;8.306;2023-09-08T06:18:23;2.38;;;2.13;;
56670;SDS011;42545;50.054;8.306;2023-09-08T06:20:50;2.63;;;1.75;;
56670;SDS011;42545;50.054;8.306;2023-09-08T06:23:19;2.97;;;2.33;;
56670;SDS011;42545;50.054;8.306;2023-09-08T06:25:48;2.53;;;2.33;;
56670;SDS011;42545;50.054;8.306;2023-09-08T06:28:15;2.63;;;2.40;;
56670;SDS011;42545;50.054;8.306;2023-09-08T06:30:42;2.95;;;2.40;;
56670;SDS011;42545;50.054;8.306;2023-09-08T06:33:09;2.88;;;2.50;;
56670;SDS011;42545;50.054;8.306;2023-09-08T06:35:37;2.70;;;2.40;;
56670;SDS011;42545;50.054;8.306;2023-09-08T06:38:04;2.53;;;2.15;;
56670;SDS011;42545;50.054;8.306;2023-09-08T06:40:30;2.85;;;2.40;;
56670;SDS011;42545;50.054;8.306;2023-09-08T06:42:57;3.03;;;2.30;;
56670;SDS011;42545;50.054;8.306;2023-09-08T06:45:24;2.95;;;2.60;;
56670;SDS011;42545;50.054;8.306;2023-09-08T06:47:51;3.17;;;2.30;;
56670;SDS011;42545;50.054;8.306;2023-09-08T06:50:20;3.20;;;2.55;;
56670;SDS011;42545;50.054;8.306;2023-09-08T06:52:48;3.08;;;2.78;;
56670;SDS011;42545;50.054;8.306;2023-09-08T06:55:15;3.28;;;2.42;;
56670;SDS011;42545;50.054;8.306;2023-09-08T06:57:41;2.85;;;2.20;;
56670;SDS011;42545;50.054;8.306;2023-09-08T07:00:09;2.60;;;2.38;;
56670;SDS011;42545;50.054;8.306;2023-09-08T07:02:37;2.72;;;2.05;;
56670;SDS011;42545;50.054;8.306;2023-09-08T07:05:04;2.80;;;2.33;;
56670;SDS011;42545;50.054;8.306;2023-09-08T07:07:33;2.23;;;2.03;;
56670;SDS011;42545;50.054;8.306;2023-09-08T07:10:02;2.20;;;1.83;;
56670;SDS011;42545;50.054;8.306;2023-09-08T07:12:31;2.58;;;2.28;;
56670;SDS011;42545;50.054;8.306;2023-09-08T07:14:58;2.00;;;1.80;;
56670;SDS011;42545;50.054;8.306;2023-09-08T07:17:31;3.00;;;2.10;;
56670;SDS011;42545;50.054;8.306;2023-09-08T07:19:58;3.53;;;2.38;;
56670;SDS011;42545;50.054;8.306;2023-09-08T07:22:26;2.33;;;2.13;;
56670;SDS011;42545;50.054;8.306;2023-09-08T07:24:52;2.50;;;2.30;;
56670;SDS011;42545;50.054;8.306;2023-09-08T07:27:20;2.60;;;2.33;;
56670;SDS011;42545;50.054;8.306;2023-09-08T07:29:47;3.40;;;2.60;;
56670;SDS011;42545;50.054;8.306;2023-09-08T07:32:14;2.70;;;2.35;;
56670;SDS011;42545;50.054;8.306;2023-09-08T07:34:41;2.72;;;2.20;;
56670;SDS011;42545;50.054;8.306;2023-09-08T07:37:08;3.85;;;2.30;;
56670;SDS011;42545;50.054;8.306;2023-09-08T07:39:35;2.80;;;2.50;;
56670;SDS011;42545;50.054;8.306;2023-09-08T07:42:02;3.97;;;2.40;;
56670;SDS011;42545;50.054;8.306;2023-09-08T07:44:30;2.58;;;2.35;;
56670;SDS011;42545;50.054;8.306;2023-09-08T07:46:57;2.42;;;2.22;;
56670;SDS011;42545;50.054;8.306;2023-09-08T07:49:24;3.10;;;2.72;;
56670;SDS011;42545;50.054;8.306;2023-09-08T07:51:51;3.22;;;2.85;;
56670;SDS011;42545;50.054;8.306;2023-09-08T07:54:18;2.90;;;2.60;;
56670;SDS011;42545;50.054;8.306;2023-09-08T07:56:45;3.72;;;2.85;;
56670;SDS011;42545;50.054;8.306;2023-09-08T07:59:12;3.55;;;3.00;;
56670;SDS011;42545;50.054;8.306;2023-09-08T08:01:41;3.75;;;2.92;;
56670;SDS011;42545;50.054;8.306;2023-09-08T08:04:07;3.50;;;2.60;;
56670;SDS011;42545;50.054;8.306;2023-09-08T08:06:34;3.50;;;3.20;;
56670;SDS011;42545;50.054;8.306;2023-09-08T08:09:01;3.67;;;2.83;;
56670;SDS011;42545;50.054;8.306;2023-09-08T08:11:28;2.90;;;2.60;;
56670;SDS011;42545;50.054;8.306;2023-09-08T08:13:54;3.30;;;2.75;;
56670;SDS011;42545;50.054;8.306;2023-09-08T08:16:21;3.10;;;2.75;;
56670;SDS011;42545;50.054;8.306;2023-09-08T08:18:50;3.95;;;3.17;;
56670;SDS011;42545;50.054;8.306;2023-09-08T08:21:17;3.20;;;2.72;;
56670;SDS011;42545;50.054;8.306;2023-09-08T08:23:44;2.90;;;2.60;;
56670;SDS011;42545;50.054;8.306;2023-09-08T08:26:11;3.10;;;2.63;;
56670;SDS011;42545;50.054;8.306;2023-09-08T08:28:39;3.17;;;2.60;;
56670;SDS011;42545;50.054;8.306;2023-09-08T08:31:06;3.97;;;3.22;;
56670;SDS011;42545;50.054;8.306;2023-09-08T08:33:33;4.03;;;3.05;;
56670;SDS011;42545;50.054;8.306;2023-09-08T08:36:01;3.20;;;2.83;;
56670;SDS011;42545;50.054;8.306;2023-09-08T08:38:28;4.80;;;3.53;;
56670;SDS011;42545;50.054;8.306;2023-09-08T08:40:57;3.38;;;2.65;;
56670;SDS011;42545;50.054;8.306;2023-09-08T08:43:31;3.95;;;2.88;;
56670;SDS011;42545;50.054;8.306;2023-09-08T08:45:59;3.15;;;2.80;;
56670;SDS011;42545;50.054;8.306;2023-09-08T08:48:26;3.50;;;2.95;;
56670;SDS011;42545;50.054;8.306;2023-09-08T08:50:56;2.73;;;2.47;;
56670;SDS011;42545;50.054;8.306;2023-09-08T08:53:26;5.18;;;3.80;;
56670;SDS011;42545;50.054;8.306;2023-09-08T08:55:55;4.13;;;3.30;;
56670;SDS011;42545;50.054;8.306;2023-09-08T08:58:25;3.00;;;2.70;;
56670;SDS011;42545;50.054;8.306;2023-09-08T09:00:52;3.45;;;2.72;;
56670;SDS011;42545;50.054;8.306;2023-09-08T09:03:21;3.67;;;3.00;;
56670;SDS011;42545;50.054;8.306;2023-09-08T09:05:50;3.00;;;2.63;;
56670;SDS011;42545;50.054;8.306;2023-09-08T09:08:17;3.88;;;3.10;;
56670;SDS011;42545;50.054;8.306;2023-09-08T09:10:48;3.50;;;2.90;;
56670;SDS011;42545;50.054;8.306;2023-09-08T09:13:15;3.35;;;3.00;;
56670;SDS011;42545;50.054;8.306;2023-09-08T09:15:41;4.05;;;2.75;;
56670;SDS011;42545;50.054;8.306;2023-09-08T09:18:09;3.30;;;2.70;;
56670;SDS011;42545;50.054;8.306;2023-09-08T09:20:36;3.13;;;2.75;;
56670;SDS011;42545;50.054;8.306;2023-09-08T09:23:03;3.28;;;2.95;;
56670;SDS011;42545;50.054;8.306;2023-09-08T09:25:31;3.67;;;2.90;;
56670;SDS011;42545;50.054;8.306;2023-09-08T09:28:02;3.05;;;2.75;;
56670;SDS011;42545;50.054;8.306;2023-09-08T09:30:46;3.80;;;2.90;;
56670;SDS011;42545;50.054;8.306;2023-09-08T09:33:14;3.65;;;2.80;;
56670;SDS011;42545;50.054;8.306;2023-09-08T09:35:41;3.40;;;2.80;;
56670;SDS011;42545;50.054;8.306;2023-09-08T09:38:09;3.03;;;2.50;;
56670;SDS011;42545;50.054;8.306;2023-09-08T09:40:36;3.75;;;2.80;;
56670;SDS011;42545;50.054;8.306;2023-09-08T09:43:06;3.63;;;2.67;;
56670;SDS011;42545;50.054;8.306;2023-09-08T09:48:00;2.97;;;2.60;;
56670;SDS011;42545;50.054;8.306;2023-09-08T09:50:29;3.50;;;3.00;;
56670;SDS011;42545;50.054;8.306;2023-09-08T09:52:58;3.58;;;3.25;;
56670;SDS011;42545;50.054;8.306;2023-09-08T09:55:26;3.40;;;3.05;;
56670;SDS011;42545;50.054;8.306;2023-09-08T09:57:54;3.97;;;3.20;;
56670;SDS011;42545;50.054;8.306;2023-09-08T10:00:27;3.83;;;3.45;;
56670;SDS011;42545;50.054;8.306;2023-09-08T10:02:54;3.60;;;2.75;;
56670;SDS011;42545;50.054;8.306;2023-09-08T10:05:23;3.65;;;2.80;;
56670;SDS011;42545;50.054;8.306;2023-09-08T10:07:50;2.90;;;2.60;;
56670;SDS011;42545;50.054;8.306;2023-09-08T10:10:18;4.20;;;3.10;;
56670;SDS011;42545;50.054;8.306;2023-09-08T10:12:46;3.20;;;2.60;;
56670;SDS011;42545;50.054;8.306;2023-09-08T10:15:19;3.88;;;3.10;;
56670;SDS011;42545;50.054;8.306;2023-09-08T10:17:52;4.25;;;3.00;;
56670;SDS011;42545;50.054;8.306;2023-09-08T10:20:21;3.25;;;2.90;;
56670;SDS011;42545;50.054;8.306;2023-09-08T10:22:50;3.30;;;2.95;;
56670;SDS011;42545;50.054;8.306;2023-09-08T10:25:19;3.85;;;3.45;;
56670;SDS011;42545;50.054;8.306;2023-09-08T10:27:47;3.45;;;3.15;;
56670;SDS011;42545;50.054;8.306;2023-09-08T10:30:15;4.05;;;2.95;;
56670;SDS011;42545;50.054;8.306;2023-09-08T10:32:42;4.03;;;3.10;;
56670;SDS011;42545;50.054;8.306;2023-09-08T10:35:12;3.70;;;3.15;;
56670;SDS011;42545;50.054;8.306;2023-09-08T10:37:39;3.17;;;2.80;;
56670;SDS011;42545;50.054;8.306;2023-09-08T10:42:49;3.20;;;2.90;;
56670;SDS011;42545;50.054;8.306;2023-09-08T10:45:32;3.35;;;2.90;;
56670;SDS011;42545;50.054;8.306;2023-09-08T10:48:00;3.33;;;3.03;;
56670;SDS011;42545;50.054;8.306;2023-09-08T10:50:31;4.57;;;3.30;;
56670;SDS011;42545;50.054;8.306;2023-09-08T10:53:12;4.20;;;3.30;;
56670;SDS011;42545;50.054;8.306;2023-09-08T10:55:41;3.40;;;3.10;;
56670;SDS011;42545;50.054;8.306;2023-09-08T10:58:17;2.90;;;2.60;;
56670;SDS011;42545;50.054;8.306;2023-09-08T11:00:45;4.50;;;3.00;;
56670;SDS011;42545;50.054;8.306;2023-09-08T11:03:13;3.33;;;2.80;;
56670;SDS011;42545;50.054;8.306;2023-09-08T11:05:53;2.70;;;2.50;;
56670;SDS011;42545;50.054;8.306;2023-09-08T11:08:19;3.90;;;3.45;;
56670;SDS011;42545;50.054;8.306;2023-09-08T11:10:46;3.10;;;2.80;;
56670;SDS011;42545;50.054;8.306;2023-09-08T11:13:12;3.35;;;2.95;;
56670;SDS011;42545;50.054;8.306;2023-09-08T11:15:39;3.83;;;3.03;;
56670;SDS011;42545;50.054;8.306;2023-09-08T11:18:06;3.30;;;2.95;;
56670;SDS011;42545;50.054;8.306;2023-09-08T11:20:33;3.92;;;2.78;;
56670;SDS011;42545;50.054;8.306;2023-09-08T11:23:02;3.50;;;3.03;;
56670;SDS011;42545;50.054;8.306;2023-09-08T11:25:31;3.38;;;3.08;;
56670;SDS011;42545;50.054;8.306;2023-09-08T11:27:58;3.00;;;2.70;;
56670;SDS011;42545;50.054;8.306;2023-09-08T11:30:26;3.47;;;3.05;;
56670;SDS011;42545;50.054;8.306;2023-09-08T11:32:53;3.47;;;3.17;;
56670;SDS011;42545;50.054;8.306;2023-09-08T11:35:20;3.40;;;3.00;;
56670;SDS011;42545;50.054;8.306;2023-09-08T11:37:47;3.10;;;2.70;;
56670;SDS011;42545;50.054;8.306;2023-09-08T11:40:19;2.80;;;2.60;;
56670;SDS011;42545;50.054;8.306;2023-09-08T11:42:47;3.78;;;2.70;;
56670;SDS011;42545;50.054;8.306;2023-09-08T11:45:15;2.80;;;2.60;;
56670;SDS011;42545;50.054;8.306;2023-09-08T11:47:46;4.30;;;3.35;;
56670;SDS011;42545;50.054;8.306;2023-09-08T11:50:14;6.25;;;2.92;;
56670;SDS011;42545;50.054;8.306;2023-09-08T11:52:43;4.65;;;3.00;;
56670;SDS011;42545;50.054;8.306;2023-09-08T11:55:11;3.88;;;2.90;;
56670;SDS011;42545;50.054;8.306;2023-09-08T11:57:42;3.10;;;2.80;;
56670;SDS011;42545;50.054;8.306;2023-09-08T12:00:12;3.08;;;2.70;;
56670;SDS011;42545;50.054;8.306;2023-09-08T12:02:43;3.33;;;2.85;;
56670;SDS011;42545;50.054;8.306;2023-09-08T12:05:11;3.88;;;3.13;;
56670;SDS011;42545;50.054;8.306;2023-09-08T12:07:39;3.38;;;3.05;;
56670;SDS011;42545;50.054;8.306;2023-09-08T12:10:08;2.90;;;2.67;;
56670;SDS011;42545;50.054;8.306;2023-09-08T12:12:44;2.97;;;2.67;;
56670;SDS011;42545;50.054;8.306;2023-09-08T12:15:11;3.38;;;3.05;;
56670;SDS011;42545;50.054;8.306;2023-09-08T12:17:55;3.15;;;2.70;;
56670;SDS011;42545;50.054;8.306;2023-09-08T12:20:22;3.03;;;2.72;;
56670;SDS011;42545;50.054;8.306;2023-09-08T12:22:50;3.10;;;2.80;;
56670;SDS011;42545;50.054;8.306;2023-09-08T12:25:18;3.22;;;2.92;;
56670;SDS011;42545;50.054;8.306;2023-09-08T12:27:49;4.13;;;3.13;;
56670;SDS011;42545;50.054;8.306;2023-09-08T12:30:16;3.28;;;2.92;;
56670;SDS011;42545;50.054;8.306;2023-09-08T12:32:45;4.38;;;3.15;;
56670;SDS011;42545;50.054;8.306;2023-09-08T12:35:19;3.10;;;2.83;;
56670;SDS011;42545;50.054;8.306;2023-09-08T12:37:53;3.20;;;2.90;;
56670;SDS011;42545;50.054;8.306;2023-09-08T12:40:24;4.47;;;3.45;;
56670;SDS011;42545;50.054;8.306;2023-09-08T12:42:53;3.95;;;3.40;;
56670;SDS011;42545;50.054;8.306;2023-09-08T12:45:20;3.90;;;3.40;;
56670;SDS011;42545;50.054;8.306;2023-09-08T12:47:49;3.47;;;3.17;;
56670;SDS011;42545;50.054;8.306;2023-09-08T12:50:16;3.25;;;2.95;;
56670;SDS011;42545;50.054;8.306;2023-09-08T12:52:43;3.65;;;2.60;;
56670;SDS011;42545;50.054;8.306;2023-09-08T12:55:11;2.65;;;2.45;;
56670;SDS011;42545;50.054;8.306;2023-09-08T12:57:37;2.95;;;2.65;;
56670;SDS011;42545;50.054;8.306;2023-09-08T13:00:07;2.95;;;2.50;;
56670;SDS011;42545;50.054;8.306;2023-09-08T13:02:34;2.78;;;2.58;;
56670;SDS011;42545;50.054;8.306;2023-09-08T13:05:01;3.55;;;2.60;;
56670;SDS011;42545;50.054;8.306;2023-09-08T13:07:28;2.80;;;2.60;;
56670;SDS011;42545;50.054;8.306;2023-09-08T13:09:56;2.95;;;2.47;;
56670;SDS011;42545;50.054;8.306;2023-09-08T13:12:23;3.20;;;2.70;;
56670;SDS011;42545;50.054;8.306;2023-09-08T13:14:50;2.72;;;2.53;;
56670;SDS011;42545;50.054;8.306;2023-09-08T13:17:18;3.00;;;2.70;;
56670;SDS011;42545;50.054;8.306;2023-09-08T13:19:47;3.10;;;2.80;;
56670;SDS011;42545;50.054;8.306;2023-09-08T13:22:14;3.65;;;2.80;;
56670;SDS011;42545;50.054;8.306;2023-09-08T13:24:40;2.67;;;2.47;;
56670;SDS011;42545;50.054;8.306;2023-09-08T13:27:07;2.40;;;2.20;;
56670;SDS011;42545;50.054;8.306;2023-09-08T13:29:34;2.50;;;2.30;;
56670;SDS011;42545;50.054;8.306;2023-09-08T13:32:01;2.70;;;2.22;;
56670;SDS011;42545;50.054;8.306;2023-09-08T13:34:30;2.08;;;1.88;;
56670;SDS011;42545;50.054;8.306;2023-09-08T13:36:58;2.30;;;2.10;;
56670;SDS011;42545;50.054;8.306;2023-09-08T13:39:24;4.70;;;3.10;;
56670;SDS011;42545;50.054;8.306;2023-09-08T13:41:51;2.97;;;2.67;;
56670;SDS011;42545;50.054;8.306;2023-09-08T13:44:21;3.13;;;2.25;;
56670;SDS011;42545;50.054;8.306;2023-09-08T13:46:49;3.03;;;2.58;;
56670;SDS011;42545;50.054;8.306;2023-09-08T13:49:16;2.70;;;2.50;;
56670;SDS011;42545;50.054;8.306;2023-09-08T13:51:46;2.27;;;2.07;;
56670;SDS011;42545;50.054;8.306;2023-09-08T13:54:14;2.25;;;2.05;;
56670;SDS011;42545;50.054;8.306;2023-09-08T13:56:41;2.63;;;2.42;;
56670;SDS011;42545;50.054;8.306;2023-09-08T13:59:09;2.72;;;2.42;;
56670;SDS011;42545;50.054;8.306;2023-09-08T14:01:39;2.35;;;2.15;;
56670;SDS011;42545;50.054;8.306;2023-09-08T14:04:09;2.40;;;2.20;;
56670;SDS011;42545;50.054;8.306;2023-09-08T14:06:37;1.98;;;1.88;;
56670;SDS011;42545;50.054;8.306;2023-09-08T14:09:06;2.30;;;2.10;;
56670;SDS011;42545;50.054;8.306;2023-09-08T14:11:33;3.13;;;2.43;;
56670;SDS011;42545;50.054;8.306;2023-09-08T14:14:00;2.90;;;2.40;;
56670;SDS011;42545;50.054;8.306;2023-09-08T14:16:28;2.50;;;2.30;;
56670;SDS011;42545;50.054;8.306;2023-09-08T14:18:55;2.67;;;2.47;;
56670;SDS011;42545;50.054;8.306;2023-09-08T14:21:22;2.38;;;2.17;;
56670;SDS011;42545;50.054;8.306;2023-09-08T14:23:49;3.05;;;2.10;;
56670;SDS011;42545;50.054;8.306;2023-09-08T14:26:18;2.60;;;2.40;;
56670;SDS011;42545;50.054;8.306;2023-09-08T14:28:45;2.22;;;2.03;;
56670;SDS011;42545;50.054;8.306;2023-09-08T14:31:12;2.70;;;2.50;;
56670;SDS011;42545;50.054;8.306;2023-09-08T14:33:39;2.45;;;2.10;;
56670;SDS011;42545;50.054;8.306;2023-09-08T14:36:06;3.05;;;2.58;;
56670;SDS011;42545;50.054;8.306;2023-09-08T14:38:33;2.78;;;2.17;;
56670;SDS011;42545;50.054;8.306;2023-09-08T14:41:01;2.75;;;2.50;;
56670;SDS011;42545;50.054;8.306;2023-09-08T14:43:30;2.47;;;2.20;;
56670;SDS011;42545;50.054;8.306;2023-09-08T14:45:57;3.05;;;2.75;;
56670;SDS011;42545;50.054;8.306;2023-09-08T14:48:24;2.85;;;2.33;;
56670;SDS011;42545;50.054;8.306;2023-09-08T14:50:51;2.63;;;2.42;;
56670;SDS011;42545;50.054;8.306;2023-09-08T14:53:18;2.70;;;2.30;;
56670;SDS011;42545;50.054;8.306;2023-09-08T14:55:44;2.30;;;2.10;;
56670;SDS011;42545;50.054;8.306;2023-09-08T14:58:13;2.25;;;2.03;;
56670;SDS011;42545;50.054;8.306;2023-09-08T15:00:43;3.30;;;2.45;;